Time;durP1;ratioP1;P1;durP2;ratioP2;P2;SDS_P1;SDS_P2;PMS_P1;PMS_P2;Temp;Humidity;BMP_temperature;BMP_pressure;BME280_temperature;BME280_humidity;BME280_pressure;Samples;Min_cycle;Max_cycle;Signal;HPM_P1;HPM_P2
2022/12/25 00:02:11;;;;;;;25.98;11.52;;;;;;;3.55;100.00;100937.19;6217538;22;20026;-75
2022/12/25 00:04:41;;;;;;;26.98;11.27;;;;;;;3.56;100.00;100929.47;6241473;22;20043;-75
2022/12/25 00:07:07;;;;;;;33.50;11.90;;;;;;;3.56;100.00;100924.28;6240268;22;20012;-75
2022/12/25 00:09:34;;;;;;;36.75;16.48;;;;;;;3.60;100.00;100931.28;6239335;22;20043;-75
2022/12/25 00:12:00;;;;;;;31.58;12.05;;;;;;;3.63;100.00;100933.94;6243192;22;20015;-75
2022/12/25 00:14:27;;;;;;;24.85;9.90;;;;;;;3.67;100.00;100924.53;6241925;22;20016;-75
2022/12/25 00:16:53;;;;;;;22.33;10.15;;;;;;;3.71;100.00;100928.94;6240294;22;20022;-74
2022/12/25 00:19:20;;;;;;;23.42;10.57;;;;;;;3.80;100.00;100925.69;6264388;22;20019;-74
2022/12/25 00:21:46;;;;;;;28.52;10.82;;;;;;;3.89;100.00;100919.84;6213579;22;20008;-75
2022/12/25 00:24:13;;;;;;;25.05;9.85;;;;;;;3.93;100.00;100919.09;6238179;22;20011;-75
2022/12/25 00:26:39;;;;;;;36.13;13.50;;;;;;;3.94;100.00;100915.66;6237950;22;20022;-75
2022/12/25 00:29:06;;;;;;;29.00;12.77;;;;;;;3.92;100.00;100918.19;6264876;22;20022;-75
2022/12/25 00:31:33;;;;;;;24.70;9.48;;;;;;;3.91;100.00;100921.63;6217892;22;20084;-75
2022/12/25 00:34:00;;;;;;;28.08;11.43;;;;;;;3.91;100.00;100928.53;6244070;22;20022;-74
2022/12/25 00:36:26;;;;;;;20.92;9.73;;;;;;;3.87;100.00;100929.28;6245006;22;20012;-75
2022/12/25 00:38:53;;;;;;;24.80;10.73;;;;;;;3.87;100.00;100935.38;6242682;22;20008;-74
2022/12/25 00:44:03;;;;;;;21.30;9.10;;;;;;;3.74;100.00;100946.25;6216380;22;20042;-74
2022/12/25 00:46:30;;;;;;;28.15;10.30;;;;;;;3.68;100.00;100949.59;6217479;22;20012;-74
2022/12/25 00:48:59;;;;;;;26.25;9.25;;;;;;;3.63;100.00;100949.47;6240671;22;20579;-74
2022/12/25 00:51:28;;;;;;;19.50;9.50;;;;;;;3.68;100.00;100956.47;6270201;22;20011;-78
2022/12/25 00:53:55;;;;;;;28.80;9.65;;;;;;;3.68;100.00;100962.53;6243529;22;20020;-74
2022/12/25 00:56:22;;;;;;;21.52;9.50;;;;;;;3.66;100.00;100978.88;6242871;22;20039;-74
2022/12/25 00:58:48;;;;;;;21.52;7.50;;;;;;;3.59;100.00;100972.66;6241903;22;20016;-74
2022/12/25 01:01:15;;;;;;;18.48;7.25;;;;;;;3.54;100.00;100975.13;6243150;22;20035;-74
2022/12/25 01:03:41;;;;;;;24.05;13.05;;;;;;;3.51;100.00;100971.56;6243465;22;20062;-74
2022/12/25 01:06:09;;;;;;;24.90;8.63;;;;;;;3.52;100.00;100973.34;6243305;22;20015;-74
2022/12/25 01:10:20;;;;;;;24.27;8.50;;;;;;;3.45;100.00;100969.72;6240649;22;20015;-76
2022/12/25 01:11:27;;;;;;;19.65;8.00;;;;;;;3.46;100.00;100958.53;6219841;22;20008;-74
2022/12/25 01:13:54;;;;;;;21.38;9.23;;;;;;;3.40;100.00;100963.56;6268076;22;20026;-75
2022/12/25 01:16:21;;;;;;;21.48;8.65;;;;;;;3.45;100.00;100967.13;6242625;22;20018;-75
2022/12/25 01:18:48;;;;;;;24.95;7.97;;;;;;;3.44;100.00;100961.09;6241598;22;20613;-75
2022/12/25 01:21:18;;;;;;;24.77;8.65;;;;;;;3.47;100.00;100955.13;6243656;22;20458;-77
2022/12/25 01:23:45;;;;;;;21.15;7.93;;;;;;;3.46;100.00;100967.16;6217889;22;20096;-77
2022/12/25 01:26:14;;;;;;;26.25;8.48;;;;;;;3.45;100.00;100961.97;6242734;22;20020;-73
2022/12/25 01:28:41;;;;;;;19.38;8.45;;;;;;;3.38;100.00;100962.66;6239269;22;20022;-74
2022/12/25 01:31:15;;;;;;;22.27;7.10;;;;;;;3.39;100.00;100957.50;6216421;22;20333;-74
2022/12/25 01:33:43;;;;;;;18.45;7.55;;;;;;;3.43;100.00;100961.94;6240372;22;20077;-74
2022/12/25 01:36:21;;;;;;;19.83;7.47;;;;;;;3.44;100.00;100962.78;6241416;22;20157;-74
2022/12/25 01:38:48;;;;;;;27.55;9.95;;;;;;;3.43;100.00;100959.34;6237805;22;20023;-74
2022/12/25 01:41:17;;;;;;;17.23;6.72;;;;;;;3.42;100.00;100967.94;6215159;22;20012;-75
2022/12/25 01:44:03;;;;;;;24.55;7.05;;;;;;;3.41;100.00;100963.59;6239715;22;20717;-75
2022/12/25 01:46:31;;;;;;;20.42;7.55;;;;;;;3.43;100.00;100964.50;6268627;22;20014;-75
2022/12/25 01:49:03;;;;;;;18.08;7.30;;;;;;;3.45;100.00;100973.16;6266096;22;20042;-74
2022/12/25 01:51:39;;;;;;;28.52;7.57;;;;;;;3.42;100.00;100972.25;6240904;22;20019;-74
2022/12/25 01:54:13;;;;;;;21.15;6.68;;;;;;;3.46;100.00;100969.75;6241699;22;20390;-75
2022/12/25 01:56:42;;;;;;;;;;;;;;;3.48;100.00;100962.03;6269721;22;20011;-75
2022/12/25 01:59:09;;;;;;;26.83;6.90;;;;;;;3.47;100.00;100963.75;6267332;22;20291;-75
2022/12/25 02:01:42;;;;;;;22.90;5.40;;;;;;;3.44;100.00;100968.84;6220489;22;20051;-74
2022/12/25 02:04:37;;;;;;;16.48;8.02;;;;;;;3.38;100.00;100971.28;6219136;22;20011;-76
2022/12/25 02:07:07;;;;;;;17.42;7.32;;;;;;;3.31;100.00;100975.44;6242430;22;20688;-74
2022/12/25 02:09:34;;;;;;;17.13;7.38;;;;;;;3.37;100.00;100977.28;6239926;22;20095;-73
2022/12/25 02:12:00;;;;;;;13.65;6.95;;;;;;;3.33;100.00;100984.94;6239749;22;20491;-75
2022/12/25 02:14:33;;;;;;;18.55;6.93;;;;;;;3.30;100.00;100984.03;6239895;22;20457;-74
2022/12/25 02:17:19;;;;;;;22.73;7.78;;;;;;;3.35;100.00;100984.16;6239655;22;20439;-75
2022/12/25 02:20:25;;;;;;;16.45;8.07;;;;;;;3.30;100.00;100990.91;6239614;22;20679;-74
2022/12/25 02:23:36;;;;;;;21.85;7.75;;;;;;;3.34;100.00;100986.69;6239700;22;20024;-75
2022/12/25 02:26:51;;;;;;;21.92;7.32;;;;;;;3.45;100.00;100973.16;6241318;22;20431;-74
2022/12/25 02:29:26;;;;;;;32.97;8.73;;;;;;;3.63;100.00;100974.50;6212855;22;20069;-74
2022/12/25 02:32:12;;;;;;;18.77;7.22;;;;;;;3.78;100.00;100979.16;6215422;22;20152;-74
2022/12/25 02:35:14;;;;;;;24.73;7.72;;;;;;;3.90;100.00;100978.59;6267032;22;20016;-74
2022/12/25 02:37:52;;;;;;;21.55;9.18;;;;;;;4.02;100.00;100990.97;6265518;22;20022;-74
2022/12/25 02:40:26;;;;;;;19.95;6.57;;;;;;;4.10;100.00;100992.84;6241155;22;20019;-74
2022/12/25 03:08:38;;;;;;;15.70;5.68;;;;;;;4.17;100.00;100972.28;6241189;22;20004;-76
2022/12/25 03:16:58;;;;;;;17.13;6.63;;;;;;;3.92;100.00;100969.13;6243451;22;20035;-75
2022/12/25 03:27:58;;;;;;;14.32;5.75;;;;;;;3.72;100.00;100954.00;6236442;22;20015;-76
2022/12/25 03:37:31;;;;;;;13.35;5.63;;;;;;;3.68;100.00;100951.28;6246710;22;20090;-74
2022/12/25 04:36:11;;;;;;;11.48;5.95;;;;;;;4.12;100.00;100952.31;6212377;22;20106;-73
2022/12/25 04:38:40;;;;;;;14.55;6.03;;;;;;;4.10;100.00;100940.19;6220222;22;20027;-74
2022/12/25 04:41:08;;;;;;;20.15;6.28;;;;;;;4.03;100.00;100935.69;6245359;22;20415;-73
2022/12/25 04:43:34;;;;;;;17.48;5.53;;;;;;;4.00;100.00;100927.84;6243464;22;20022;-75
2022/12/25 04:46:02;;;;;;;15.07;6.20;;;;;;;3.99;100.00;100934.78;6245466;22;20019;-74
2022/12/25 04:48:33;;;;;;;23.30;6.57;;;;;;;4.02;100.00;100928.78;6244501;22;20098;-74
2022/12/25 04:51:11;;;;;;;17.42;6.40;;;;;;;4.03;100.00;100918.44;6245206;22;20019;-74
2022/12/25 04:53:38;;;;;;;16.75;5.72;;;;;;;4.07;100.00;100916.81;6218357;22;20004;-74
2022/12/25 04:56:05;;;;;;;14.80;5.35;;;;;;;4.11;100.00;100905.66;6242881;22;20011;-73
2022/12/25 04:58:40;;;;;;;15.07;5.20;;;;;;;4.17;100.00;100913.53;6244124;22;20018;-74
2022/12/25 05:01:07;;;;;;;19.40;5.43;;;;;;;4.25;100.00;100931.84;6245108;22;20067;-74
2022/12/25 05:03:37;;;;;;;16.25;5.55;;;;;;;4.30;100.00;100925.94;6242737;22;20500;-74
2022/12/25 05:06:04;;;;;;;15.93;6.28;;;;;;;4.41;100.00;100935.66;6244610;22;20331;-73
2022/12/25 05:08:33;;;;;;;14.38;5.15;;;;;;;4.46;100.00;100921.94;6219124;22;20019;-76
2022/12/25 05:11:01;;;;;;;11.35;5.45;;;;;;;4.52;100.00;100920.31;6218738;22;20007;-74
2022/12/25 05:13:27;;;;;;;17.75;5.40;;;;;;;4.55;100.00;100917.78;6242466;22;20594;-74
2022/12/25 05:15:57;;;;;;;16.23;4.93;;;;;;;4.57;100.00;100913.50;6218720;22;20015;-75
2022/12/25 05:18:23;;;;;;;22.55;6.43;;;;;;;4.62;100.00;100912.75;6270754;22;20737;-76
2022/12/25 05:21:09;;;;;;;14.00;5.22;;;;;;;4.66;100.00;100911.09;6217061;22;20020;-73
2022/12/25 05:23:47;;;;;;;17.20;5.60;;;;;;;4.71;100.00;100908.59;6243545;22;20910;-77
2022/12/25 05:26:20;;;;;;;16.83;5.20;;;;;;;4.75;100.00;100905.22;6245203;22;20015;-75
2022/12/25 05:28:47;;;;;;;12.88;4.60;;;;;;;4.77;100.00;100911.28;6243473;22;20019;-75
2022/12/25 05:31:16;;;;;;;17.63;5.38;;;;;;;4.80;100.00;100916.56;6244397;22;20019;-74
2022/12/25 05:33:43;;;;;;;11.65;5.35;;;;;;;4.83;100.00;100903.63;6243346;22;20738;-74
2022/12/25 05:36:14;;;;;;;15.35;7.38;;;;;;;4.87;100.00;100901.97;6245649;22;20374;-73
2022/12/25 05:38:40;;;;;;;14.38;6.68;;;;;;;4.91;100.00;100908.97;6246557;22;20512;-74
2022/12/25 05:41:09;;;;;;;18.73;5.68;;;;;;;4.94;100.00;100901.22;6245282;22;20008;-76
2022/12/25 05:44:20;;;;;;;12.40;4.95;;;;;;;4.97;100.00;100901.28;6242448;22;20020;-74
2022/12/25 06:04:57;;;;;;;9.13;4.32;;;;;;;4.99;100.00;100883.16;6230800;23;20019;-76
2022/12/25 06:11:41;;;;;;;12.45;4.68;;;;;;;4.90;100.00;100884.75;6228588;23;20078;-76
2022/12/25 06:15:38;;;;;;;;;;;;;;;;;;;;;
2022/12/25 06:25:47;;;;;;;17.90;4.78;;;;;;;5.02;100.00;100883.19;6173308;23;20016;-76
2022/12/25 06:28:14;;;;;;;17.42;6.00;;;;;;;5.02;100.00;100891.88;6212627;23;20020;-75
2022/12/25 06:30:40;;;;;;;7.40;4.95;;;;;;;5.06;100.00;100882.41;6210850;23;20012;-75
2022/12/25 06:33:06;;;;;;;15.20;6.35;;;;;;;5.04;100.00;100876.34;6187150;23;20720;-77
2022/12/25 06:35:33;;;;;;;11.52;6.00;;;;;;;5.04;100.00;100877.19;6189270;23;20698;-76
2022/12/25 06:38:00;;;;;;;15.00;5.43;;;;;;;5.11;100.00;100884.25;6214371;23;20028;-76
2022/12/25 06:40:26;;;;;;;18.70;6.65;;;;;;;5.19;100.00;100880.91;6248555;23;20016;-75
2022/12/25 06:42:55;;;;;;;13.52;5.50;;;;;;;5.24;100.00;100880.16;6219270;23;20018;-75
2022/12/25 06:45:22;;;;;;;14.50;5.50;;;;;;;5.31;100.00;100875.91;6223721;23;20510;-76
2022/12/25 06:47:48;;;;;;;16.30;5.30;;;;;;;5.31;100.00;100865.53;6194622;23;20016;-74
2022/12/25 06:50:15;;;;;;;13.27;4.65;;;;;;;5.31;100.00;100857.75;6212400;23;20017;-73
2022/12/25 06:52:43;;;;;;;13.55;5.70;;;;;;;5.28;100.00;100855.97;6185596;23;20024;-74
2022/12/25 06:55:09;;;;;;;14.27;5.68;;;;;;;5.27;100.00;100848.19;6213991;23;20020;-75
2022/12/25 06:57:39;;;;;;;17.63;6.55;;;;;;;5.24;100.00;100843.81;6241795;23;20008;-75
2022/12/25 07:00:07;;;;;;;17.75;6.43;;;;;;;5.19;100.00;100841.97;6214768;23;20012;-74
2022/12/25 07:02:37;;;;;;;13.45;6.25;;;;;;;5.14;100.00;100841.91;6214427;23;20091;-74
2022/12/25 07:05:04;;;;;;;22.40;6.03;;;;;;;5.04;100.00;100840.88;6214741;23;20016;-74
2022/12/25 07:07:33;;;;;;;13.77;5.05;;;;;;;4.94;100.00;100845.03;6215216;23;20020;-76
2022/12/25 07:09:59;;;;;;;11.00;5.97;;;;;;;4.95;100.00;100851.97;6214252;23;20603;-75
2022/12/25 07:12:26;;;;;;;16.75;5.13;;;;;;;4.95;100.00;100856.28;6214282;23;20441;-77
2022/12/25 07:14:55;;;;;;;13.10;6.25;;;;;;;4.94;100.00;100863.19;6214090;23;20012;-75
2022/12/25 07:17:22;;;;;;;18.42;5.95;;;;;;;4.97;100.00;100870.16;6189771;23;20016;-75
2022/12/25 07:19:49;;;;;;;18.15;6.10;;;;;;;4.97;100.00;100876.22;6191032;23;20067;-74
2022/12/25 07:22:17;;;;;;;13.15;6.22;;;;;;;5.02;100.00;100872.81;6211999;23;20012;-74
2022/12/25 07:24:43;;;;;;;11.52;6.40;;;;;;;5.05;100.00;100873.75;6186814;23;20358;-75
2022/12/25 07:27:10;;;;;;;17.98;6.85;;;;;;;5.09;100.00;100866.91;6188210;23;20074;-75
2022/12/25 07:29:36;;;;;;;15.15;6.18;;;;;;;5.13;100.00;100866.97;6213173;23;20340;-74
2022/12/25 07:32:03;;;;;;;17.25;6.10;;;;;;;5.19;100.00;100860.13;6187138;23;20038;-75
2022/12/25 07:34:29;;;;;;;16.10;5.00;;;;;;;5.23;100.00;100862.81;6212076;23;20485;-75
2022/12/25 07:36:56;;;;;;;15.60;6.10;;;;;;;5.27;100.00;100851.63;6213631;23;20008;-74
2022/12/25 07:39:23;;;;;;;13.60;5.72;;;;;;;5.35;100.00;100845.69;6188014;23;20017;-74
2022/12/25 07:41:49;;;;;;;16.60;5.22;;;;;;;5.43;100.00;100846.69;6212530;23;20601;-74
2022/12/25 07:44:16;;;;;;;10.05;4.50;;;;;;;5.44;100.00;100846.69;6189103;23;20046;-75
2022/12/25 07:46:43;;;;;;;19.10;6.90;;;;;;;5.49;100.00;100849.38;6189907;23;20020;-75
2022/12/25 07:49:11;;;;;;;10.23;4.85;;;;;;;5.54;100.00;100850.31;6213724;23;20095;-76
2022/12/25 07:51:38;;;;;;;10.05;4.60;;;;;;;5.55;100.00;100838.19;6212887;23;20431;-76
2022/12/25 07:54:05;;;;;;;15.63;5.15;;;;;;;5.56;100.00;100843.41;6211884;23;20435;-74
2022/12/25 07:56:31;;;;;;;14.85;5.22;;;;;;;5.56;100.00;100840.81;6213059;23;20122;-75
2022/12/25 07:59:03;;;;;;;11.07;5.60;;;;;;;5.55;100.00;100826.06;6212798;23;20024;-76
2022/12/25 08:01:32;;;;;;;14.40;6.30;;;;;;;5.46;100.00;100815.56;6185555;23;20016;-74
2022/12/25 08:04:01;;;;;;;14.23;6.70;;;;;;;5.43;100.00;100793.03;6213277;23;20004;-76
2022/12/25 08:06:36;;;;;;;15.65;4.72;;;;;;;5.43;100.00;100790.41;6210248;23;20505;-75
2022/12/25 08:09:16;;;;;;;14.52;5.15;;;;;;;5.47;100.00;100793.94;6210811;23;20082;-75
2022/12/25 08:11:51;;;;;;;14.65;5.20;;;;;;;5.49;100.00;100787.06;6187763;23;20031;-75
2022/12/25 08:14:17;;;;;;;10.18;4.63;;;;;;;5.56;100.00;100786.28;6238294;23;20062;-75
2022/12/25 08:16:45;;;;;;;11.75;4.53;;;;;;;5.58;100.00;100789.78;6188263;23;20103;-74
2022/12/25 08:19:13;;;;;;;14.60;5.20;;;;;;;5.63;100.00;100802.81;6213262;23;20020;-74
2022/12/25 08:21:40;;;;;;;9.20;5.18;;;;;;;5.67;100.00;100812.41;6212598;23;20013;-74
2022/12/25 08:24:11;;;;;;;10.30;5.15;;;;;;;5.74;100.00;100810.78;6212404;23;20016;-74
2022/12/25 08:26:37;;;;;;;14.85;5.82;;;;;;;5.76;100.00;100819.44;6213892;23;20051;-75
2022/12/25 08:29:04;;;;;;;11.80;4.97;;;;;;;5.80;100.00;100826.41;6212904;23;20121;-75
2022/12/25 08:31:32;;;;;;;12.98;5.25;;;;;;;5.85;100.00;100824.75;6212760;23;20016;-76
2022/12/25 08:33:59;;;;;;;9.80;4.43;;;;;;;5.89;100.00;100829.16;6213020;23;20062;-76
2022/12/25 08:36:26;;;;;;;14.48;5.53;;;;;;;5.93;100.00;100833.53;6189034;23;20723;-75
2022/12/25 08:38:53;;;;;;;14.10;4.40;;;;;;;5.99;100.00;100829.31;6215000;23;20012;-77
2022/12/25 08:41:20;;;;;;;14.10;4.40;;;;;;;6.03;100.00;100833.69;6212485;23;20040;-75
2022/12/25 08:43:46;;;;;;;10.20;4.88;;;;;;;6.09;100.00;100836.38;6213290;23;20079;-75
2022/12/25 08:46:14;;;;;;;10.98;5.05;;;;;;;6.12;100.00;100836.41;6240537;23;20099;-75
2022/12/25 08:48:45;;;;;;;19.30;4.32;;;;;;;6.20;100.00;100849.50;6187856;23;20085;-76
2022/12/25 08:51:16;;;;;;;8.90;4.70;;;;;;;6.25;100.00;100834.81;6211683;23;20035;-77
2022/12/25 08:53:45;;;;;;;6.65;3.63;;;;;;;6.29;100.00;100840.06;6212745;23;20118;-77
2022/12/25 08:56:12;;;;;;;14.60;5.60;;;;;;;6.35;100.00;100848.78;6211901;23;20016;-77
2022/12/25 08:58:39;;;;;;;11.45;4.28;;;;;;;6.36;100.00;100846.22;6212626;23;20019;-75
2022/12/25 09:01:11;;;;;;;14.50;5.03;;;;;;;6.37;100.00;100854.88;6194599;22;20043;-77
2022/12/25 09:03:47;;;;;;;15.32;5.65;;;;;;;6.39;100.00;100846.25;6269798;22;20067;-75
2022/12/25 09:06:20;;;;;;;17.17;4.70;;;;;;;6.38;100.00;100841.03;6220805;22;20062;-76
2022/12/25 09:08:53;;;;;;;10.60;4.88;;;;;;;6.38;100.00;100834.09;6218078;22;20390;-74
2022/12/25 09:11:25;;;;;;;12.93;5.22;;;;;;;6.42;100.00;100840.22;6245948;22;20008;-77
2022/12/25 09:13:55;;;;;;;14.77;5.60;;;;;;;6.45;100.00;100829.84;6210806;22;20723;-75
2022/12/25 09:16:32;;;;;;;28.70;10.70;;;;;;;6.51;100.00;100816.03;6219443;22;20012;-75
2022/12/25 09:18:59;;;;;;;12.82;4.15;;;;;;;6.56;100.00;100810.03;6247386;22;20016;-76
2022/12/25 09:21:26;;;;;;;11.05;4.63;;;;;;;6.62;100.00;100811.78;6218691;22;20061;-75
2022/12/25 09:23:52;;;;;;;11.90;4.70;;;;;;;6.70;100.00;100817.97;6242125;22;20022;-74
2022/12/25 09:26:20;;;;;;;6.60;5.13;;;;;;;6.79;100.00;100819.75;6241769;22;20041;-75
2022/12/25 09:28:47;;;;;;;13.52;4.78;;;;;;;6.86;100.00;100831.13;6243446;22;20070;-75
2022/12/25 09:31:14;;;;;;;9.50;4.07;;;;;;;6.91;100.00;100853.72;6244498;22;20738;-76
2022/12/25 09:33:40;;;;;;;12.27;4.22;;;;;;;6.94;100.00;100858.09;6243219;22;20020;-75
2022/12/25 09:36:08;;;;;;;15.65;6.03;;;;;;;6.99;100.00;100853.78;6268936;22;20015;-75
2022/12/25 09:38:35;;;;;;;13.90;5.03;;;;;;;7.01;100.00;100846.84;6243238;22;20058;-75
2022/12/25 09:41:31;;;;;;;8.35;5.00;;;;;;;7.04;100.00;100841.69;6243950;22;20449;-78
2022/12/25 09:44:07;;;;;;;8.27;4.60;;;;;;;7.06;100.00;100842.56;6270652;22;20012;-77
2022/12/25 09:46:47;;;;;;;13.82;5.38;;;;;;;7.07;100.00;100830.44;6218264;22;20024;-77
2022/12/25 09:49:33;;;;;;;9.15;4.75;;;;;;;7.08;100.00;100832.19;6244114;22;20015;-76
2022/12/25 09:52:08;;;;;;;10.07;4.80;;;;;;;7.09;100.00;100813.09;6218854;22;20015;-75
2022/12/25 09:54:44;;;;;;;19.35;5.28;;;;;;;7.10;100.00;100817.44;6243565;22;20040;-76
2022/12/25 09:57:13;;;;;;;9.13;4.55;;;;;;;7.10;100.00;100822.63;6269216;22;20094;-77
2022/12/25 09:59:42;;;;;;;15.13;5.25;;;;;;;7.13;100.00;100830.47;6241601;22;20011;-76
2022/12/25 10:02:35;;;;;;;12.52;4.90;;;;;;;7.17;100.00;100828.75;6215384;22;20718;-76
2022/12/25 10:05:35;;;;;;;12.00;6.05;;;;;;;7.20;100.00;100828.81;6242537;22;20453;-74
2022/12/25 10:08:46;;;;;;;16.65;4.75;;;;;;;7.22;100.00;100811.44;6269335;22;20435;-75
2022/12/25 10:11:43;;;;;;;9.70;5.03;;;;;;;7.21;100.00;100788.88;6241977;22;20008;-75
2022/12/25 10:14:28;;;;;;;10.02;4.63;;;;;;;7.19;100.00;100778.44;6242754;22;20019;-75
2022/12/25 10:17:13;;;;;;;10.82;5.22;;;;;;;7.16;100.00;100768.03;6271002;22;20019;-75
2022/12/25 10:20:11;;;;;;;9.02;5.25;;;;;;;7.17;100.00;100758.47;6244229;22;20019;-76
2022/12/25 10:23:00;;;;;;;15.98;5.50;;;;;;;7.18;100.00;100744.59;6269478;22;20019;-75
2022/12/25 10:25:26;;;;;;;10.52;7.10;;;;;;;7.19;100.00;100742.00;6244035;22;20380;-75
2022/12/25 10:28:00;;;;;;;18.45;6.28;;;;;;;7.21;100.00;100739.41;6243778;22;20427;-75
2022/12/25 10:30:29;;;;;;;18.48;6.22;;;;;;;7.25;100.00;100749.84;6218244;22;20011;-75
2022/12/25 10:32:57;;;;;;;12.85;5.22;;;;;;;7.27;100.00;100742.03;6242862;22;20717;-75
2022/12/25 10:35:27;;;;;;;10.20;4.78;;;;;;;7.29;100.00;100732.53;6243191;22;20015;-75
2022/12/25 10:38:02;;;;;;;14.27;5.55;;;;;;;7.29;100.00;100735.97;6217028;22;20019;-75
2022/12/25 10:40:37;;;;;;;9.70;4.38;;;;;;;7.33;100.00;100749.03;6218113;22;20011;-76
2022/12/25 10:43:23;;;;;;;12.23;5.75;;;;;;;7.38;100.00;100755.13;6242506;22;20019;-76
2022/12/25 10:45:50;;;;;;;15.60;5.63;;;;;;;7.40;100.00;100736.03;6243390;22;20007;-75
2022/12/25 10:48:25;;;;;;;9.95;4.45;;;;;;;7.43;100.00;100730.88;6218202;22;20077;-76
2022/12/25 10:50:52;;;;;;;9.80;5.18;;;;;;;7.45;100.00;100733.47;6218433;22;20024;-76
2022/12/25 10:53:29;;;;;;;12.82;5.93;;;;;;;7.48;100.00;100743.91;6269505;22;20061;-75
2022/12/25 10:56:03;;;;;;;13.13;5.28;;;;;;;7.52;100.00;100752.59;6244219;22;20019;-76
2022/12/25 10:58:33;;;;;;;7.55;4.30;;;;;;;7.57;100.00;100754.38;6219092;22;20015;-75
2022/12/25 11:01:04;;;;;;;11.07;4.65;;;;;;;7.59;100.00;100757.84;6243485;22;20022;-76
2022/12/25 11:03:39;;;;;;;8.02;4.40;;;;;;;7.61;100.00;100761.34;6242274;22;20015;-76
2022/12/25 11:06:07;;;;;;;6.05;4.25;;;;;;;7.63;100.00;100753.53;6243909;22;20389;-75
2022/12/25 11:08:35;;;;;;;7.30;4.40;;;;;;;7.65;100.00;100753.53;6243726;22;20020;-76
2022/12/25 11:11:05;;;;;;;7.05;4.20;;;;;;;7.64;100.00;100763.09;6243541;22;20334;-76
2022/12/25 11:13:36;;;;;;;11.32;4.78;;;;;;;7.64;100.00;100768.31;6242387;22;20530;-75
2022/12/25 11:16:14;;;;;;;9.35;5.00;;;;;;;7.65;100.00;100750.94;6243656;22;20019;-76
2022/12/25 11:18:51;;;;;;;8.25;4.18;;;;;;;7.68;100.00;100735.31;6246867;22;20038;-76
2022/12/25 11:21:24;;;;;;;10.00;4.50;;;;;;;7.72;100.00;100731.88;6246383;22;20544;-76
2022/12/25 11:24:01;;;;;;;9.60;5.28;;;;;;;7.76;100.00;100731.88;6245558;22;20018;-75
2022/12/25 11:26:31;;;;;;;9.65;5.28;;;;;;;7.82;100.00;100719.72;6222858;22;20018;-75
2022/12/25 11:28:58;;;;;;;8.10;4.13;;;;;;;7.86;100.00;100727.56;6250656;22;20012;-76
2022/12/25 11:31:43;;;;;;;8.30;3.97;;;;;;;7.92;100.00;100724.09;6275654;22;20012;-75
2022/12/25 11:34:24;;;;;;;21.92;5.78;;;;;;;8.00;100.00;100726.75;6245689;22;20035;-76
2022/12/25 11:36:52;;;;;;;6.07;4.95;;;;;;;8.05;100.00;100732.84;6221590;22;20019;-75
2022/12/25 11:39:32;;;;;;;9.20;6.70;;;;;;;8.11;100.00;100725.91;6246813;22;20016;-75
2022/12/25 11:42:12;;;;;;;7.28;4.20;;;;;;;8.15;100.00;100729.38;6246582;22;20023;-76
2022/12/25 11:44:58;;;;;;;8.90;4.70;;;;;;;8.19;100.00;100722.44;6244937;22;20011;-75
2022/12/25 11:47:38;;;;;;;7.53;4.20;;;;;;;8.20;100.00;100706.81;6218971;22;20054;-76
2022/12/25 11:50:24;;;;;;;13.93;5.32;;;;;;;8.24;100.00;100705.06;6244925;22;20016;-75
2022/12/25 11:52:52;;;;;;;8.18;4.70;;;;;;;8.25;100.00;100699.84;6243685;22;20008;-75
2022/12/25 11:55:30;;;;;;;10.00;4.45;;;;;;;8.29;100.00;100700.72;6244329;22;20039;-75
2022/12/25 11:58:06;;;;;;;9.05;3.58;;;;;;;8.27;100.00;100689.41;6218702;22;20007;-75
2022/12/25 12:00:35;;;;;;;6.45;4.20;;;;;;;8.27;100.00;100679.84;6243360;22;20446;-76
2022/12/25 12:03:16;;;;;;;7.18;4.32;;;;;;;8.27;100.00;100665.94;6268089;22;20050;-75
2022/12/25 12:05:57;;;;;;;11.57;4.35;;;;;;;8.20;100.00;100661.59;6217653;22;20019;-76
2022/12/25 12:08:24;;;;;;;10.88;4.47;;;;;;;8.16;100.00;100655.53;6242467;22;20016;-75
2022/12/25 12:11:14;;;;;;;5.70;3.78;;;;;;;8.15;100.00;100663.31;6241850;22;20046;-76
2022/12/25 12:14:41;;;;;;;10.60;5.00;;;;;;;8.11;100.00;100655.50;6269681;22;20035;-76
2022/12/25 12:17:12;;;;;;;12.30;5.45;;;;;;;8.06;100.00;100641.59;6245309;22;20015;-75
2022/12/25 12:19:39;;;;;;;11.93;5.32;;;;;;;8.03;100.00;100635.50;6270490;22;20447;-75
2022/12/25 12:22:06;;;;;;;8.52;4.85;;;;;;;7.99;100.00;100633.75;6243208;22;20011;-76
2022/12/25 12:24:41;;;;;;;10.73;5.47;;;;;;;7.94;100.00;100631.16;6244997;22;20015;-75
2022/12/25 12:27:34;;;;;;;13.48;4.95;;;;;;;7.92;100.00;100632.88;6244650;22;20014;-75
2022/12/25 12:30:01;;;;;;;8.25;4.80;;;;;;;7.87;100.00;100629.41;6243444;22;20011;-75
2022/12/25 12:32:37;;;;;;;10.32;5.15;;;;;;;7.87;100.00;100626.78;6218150;22;20087;-75
2022/12/25 12:35:25;;;;;;;13.15;6.03;;;;;;;7.86;100.00;100623.31;6244243;22;20026;-75
2022/12/25 12:38:00;;;;;;;9.23;6.35;;;;;;;7.85;100.00;100624.19;6243573;22;20070;-75
2022/12/25 12:40:37;;;;;;;9.55;4.97;;;;;;;7.85;100.00;100608.56;6244956;22;20016;-75
2022/12/25 12:43:07;;;;;;;12.02;6.00;;;;;;;7.85;100.00;100607.66;6243013;22;20469;-75
2022/12/25 12:45:37;;;;;;;11.90;5.05;;;;;;;7.86;100.00;100606.81;6244954;22;20011;-75
2022/12/25 12:48:16;;;;;;;11.32;6.63;;;;;;;7.86;100.00;100592.06;6244443;22;20085;-75
2022/12/25 12:50:43;;;;;;;11.38;5.00;;;;;;;7.85;100.00;100595.53;6244955;22;20034;-75
2022/12/25 12:53:22;;;;;;;11.85;5.32;;;;;;;7.84;100.00;100580.75;6244847;22;20014;-75
2022/12/25 12:55:50;;;;;;;14.43;6.20;;;;;;;7.84;100.00;100585.09;6271787;22;20007;-75
2022/12/25 12:58:32;;;;;;;13.07;4.53;;;;;;;7.85;100.00;100574.66;6243927;22;20019;-75
2022/12/25 13:01:26;;;;;;;10.73;5.25;;;;;;;7.86;100.00;100578.13;6244540;22;20057;-75
2022/12/25 13:04:30;;;;;;;8.98;4.50;;;;;;;7.85;100.00;100568.56;6270887;22;20039;-74
2022/12/25 13:07:49;;;;;;;10.05;5.25;;;;;;;7.85;100.00;100561.63;6245284;22;20012;-75
2022/12/25 13:10:32;;;;;;;8.80;5.55;;;;;;;7.81;100.00;100562.50;6271316;22;20022;-75
2022/12/25 13:13:11;;;;;;;12.55;5.70;;;;;;;7.75;100.00;100558.13;6242516;22;20045;-75
2022/12/25 13:15:38;;;;;;;12.63;5.63;;;;;;;7.72;100.00;100565.97;6242599;22;20015;-75
2022/12/25 13:18:14;;;;;;;10.90;6.05;;;;;;;7.71;100.00;100565.97;6216960;22;20012;-75
2022/12/25 13:20:49;;;;;;;11.57;5.88;;;;;;;7.69;100.00;100570.28;6244616;22;20018;-76
2022/12/25 13:23:31;;;;;;;7.78;5.53;;;;;;;7.66;100.00;100563.34;6242923;22;20121;-75
2022/12/25 13:26:05;;;;;;;12.50;6.63;;;;;;;7.61;100.00;100555.53;6217745;22;20020;-75
2022/12/25 13:28:36;;;;;;;7.05;4.55;;;;;;;7.58;100.00;100555.50;6243858;22;20082;-76
2022/12/25 13:31:21;;;;;;;16.23;4.75;;;;;;;7.55;100.00;100546.84;6243147;22;20085;-76
2022/12/25 13:34:20;;;;;;;6.40;4.43;;;;;;;7.54;100.00;100555.53;6216456;22;20016;-76
2022/12/25 13:36:46;;;;;;;16.67;4.88;;;;;;;7.51;100.00;100543.34;6219497;22;20016;-75
2022/12/25 13:39:17;;;;;;;12.75;4.90;;;;;;;7.50;100.00;100535.53;6244107;22;20016;-76
2022/12/25 13:42:05;;;;;;;10.10;4.82;;;;;;;7.48;100.00;100532.06;6242565;22;20020;-75
2022/12/25 13:44:47;;;;;;;15.13;4.93;;;;;;;7.47;100.00;100517.28;6248639;22;20772;-76
2022/12/25 13:47:26;;;;;;;10.18;5.75;;;;;;;7.46;100.00;100516.44;6218532;22;20038;-76
2022/12/25 13:49:56;;;;;;;10.18;4.40;;;;;;;7.45;100.00;100512.94;6244220;22;20442;-76
2022/12/25 13:52:35;;;;;;;8.73;4.53;;;;;;;7.43;100.00;100501.66;6242980;22;20016;-75
2022/12/25 13:55:10;;;;;;;8.63;4.65;;;;;;;7.44;100.00;100498.22;6246190;22;20023;-76
2022/12/25 13:57:45;;;;;;;11.23;6.30;;;;;;;7.43;100.00;100495.56;6274524;22;20023;-75
2022/12/25 14:00:36;;;;;;;10.57;4.88;;;;;;;7.42;100.00;100502.53;6220566;22;20019;-76
2022/12/25 14:03:06;;;;;;;10.48;5.90;;;;;;;7.42;100.00;100493.84;6243839;22;20023;-76
2022/12/25 14:05:40;;;;;;;7.72;4.97;;;;;;;7.42;100.00;100491.25;6244969;22;20020;-76